sensor_id;sensor_type;location;lat;lon;timestamp;P1;durP1;ratioP1;P2;durP2;ratioP2
40288;SDS011;28991;52.028;5.526;2023-07-13T00:02:16;1.60;;;0.98;;
40288;SDS011;28991;52.028;5.526;2023-07-13T00:04:41;1.63;;;0.80;;
40288;SDS011;28991;52.028;5.526;2023-07-13T00:07:07;1.23;;;0.95;;
40288;SDS011;28991;52.028;5.526;2023-07-13T00:09:33;1.33;;;0.93;;
40288;SDS011;28991;52.028;5.526;2023-07-13T00:12:01;1.20;;;0.90;;
40288;SDS011;28991;52.028;5.526;2023-07-13T00:14:28;1.45;;;0.90;;
40288;SDS011;28991;52.028;5.526;2023-07-13T00:16:54;1.52;;;1.00;;
40288;SDS011;28991;52.028;5.526;2023-07-13T00:19:20;1.65;;;1.00;;
40288;SDS011;28991;52.028;5.526;2023-07-13T00:21:46;1.65;;;0.90;;
40288;SDS011;28991;52.028;5.526;2023-07-13T00:24:13;1.38;;;1.05;;
40288;SDS011;28991;52.028;5.526;2023-07-13T00:26:48;0.95;;;0.88;;
40288;SDS011;28991;52.028;5.526;2023-07-13T00:29:14;1.67;;;1.15;;
40288;SDS011;28991;52.028;5.526;2023-07-13T00:31:39;1.23;;;0.90;;
40288;SDS011;28991;52.028;5.526;2023-07-13T00:34:05;1.50;;;0.80;;
40288;SDS011;28991;52.028;5.526;2023-07-13T00:36:31;1.48;;;0.88;;
40288;SDS011;28991;52.028;5.526;2023-07-13T00:38:57;1.85;;;1.20;;
40288;SDS011;28991;52.028;5.526;2023-07-13T00:41:22;0.98;;;0.82;;
40288;SDS011;28991;52.028;5.526;2023-07-13T00:43:48;1.10;;;0.80;;
40288;SDS011;28991;52.028;5.526;2023-07-13T00:48:45;0.90;;;0.70;;
40288;SDS011;28991;52.028;5.526;2023-07-13T00:51:13;1.33;;;0.98;;
40288;SDS011;28991;52.028;5.526;2023-07-13T00:53:41;1.77;;;1.02;;
40288;SDS011;28991;52.028;5.526;2023-07-13T00:56:07;1.58;;;0.80;;
40288;SDS011;28991;52.028;5.526;2023-07-13T00:58:34;1.38;;;0.70;;
40288;SDS011;28991;52.028;5.526;2023-07-13T01:01:00;1.40;;;0.80;;
40288;SDS011;28991;52.028;5.526;2023-07-13T01:03:26;1.83;;;1.10;;
40288;SDS011;28991;52.028;5.526;2023-07-13T01:05:55;1.27;;;0.90;;
40288;SDS011;28991;52.028;5.526;2023-07-13T01:08:21;1.08;;;0.98;;
40288;SDS011;28991;52.028;5.526;2023-07-13T01:10:56;1.20;;;0.80;;
40288;SDS011;28991;52.028;5.526;2023-07-13T01:13:25;1.00;;;0.80;;
40288;SDS011;28991;52.028;5.526;2023-07-13T01:15:51;1.70;;;0.95;;
40288;SDS011;28991;52.028;5.526;2023-07-13T01:18:20;1.05;;;0.90;;
40288;SDS011;28991;52.028;5.526;2023-07-13T01:23:28;0.90;;;0.70;;
40288;SDS011;28991;52.028;5.526;2023-07-13T01:25:54;1.85;;;1.00;;
40288;SDS011;28991;52.028;5.526;2023-07-13T01:28:22;1.42;;;0.95;;
40288;SDS011;28991;52.028;5.526;2023-07-13T01:30:51;1.10;;;0.90;;
40288;SDS011;28991;52.028;5.526;2023-07-13T01:33:18;1.40;;;0.80;;
40288;SDS011;28991;52.028;5.526;2023-07-13T01:35:44;1.10;;;1.00;;
40288;SDS011;28991;52.028;5.526;2023-07-13T01:38:11;1.23;;;0.80;;
40288;SDS011;28991;52.028;5.526;2023-07-13T01:40:39;1.52;;;0.90;;
40288;SDS011;28991;52.028;5.526;2023-07-13T01:43:05;2.15;;;1.30;;
40288;SDS011;28991;52.028;5.526;2023-07-13T01:45:31;1.02;;;0.80;;
40288;SDS011;28991;52.028;5.526;2023-07-13T01:47:57;0.93;;;0.77;;
40288;SDS011;28991;52.028;5.526;2023-07-13T01:50:23;0.65;;;0.60;;
40288;SDS011;28991;52.028;5.526;2023-07-13T01:52:49;1.67;;;0.88;;
40288;SDS011;28991;52.028;5.526;2023-07-13T01:55:15;0.85;;;0.80;;
40288;SDS011;28991;52.028;5.526;2023-07-13T01:57:41;0.77;;;0.77;;
40288;SDS011;28991;52.028;5.526;2023-07-13T02:00:08;2.33;;;0.95;;
40288;SDS011;28991;52.028;5.526;2023-07-13T02:02:35;0.85;;;0.52;;
40288;SDS011;28991;52.028;5.526;2023-07-13T02:05:01;1.38;;;0.80;;
40288;SDS011;28991;52.028;5.526;2023-07-13T02:07:26;1.40;;;0.90;;
40288;SDS011;28991;52.028;5.526;2023-07-13T02:09:52;0.90;;;0.77;;
40288;SDS011;28991;52.028;5.526;2023-07-13T02:12:19;1.17;;;0.70;;
40288;SDS011;28991;52.028;5.526;2023-07-13T02:14:45;1.30;;;0.80;;
40288;SDS011;28991;52.028;5.526;2023-07-13T02:17:11;1.23;;;0.68;;
40288;SDS011;28991;52.028;5.526;2023-07-13T02:19:37;1.23;;;1.00;;
40288;SDS011;28991;52.028;5.526;2023-07-13T02:22:02;2.03;;;0.98;;
40288;SDS011;28991;52.028;5.526;2023-07-13T02:24:28;0.98;;;0.80;;
40288;SDS011;28991;52.028;5.526;2023-07-13T02:26:54;1.58;;;0.80;;
40288;SDS011;28991;52.028;5.526;2023-07-13T02:29:20;1.60;;;0.70;;
40288;SDS011;28991;52.028;5.526;2023-07-13T02:31:45;1.08;;;0.70;;
40288;SDS011;28991;52.028;5.526;2023-07-13T02:34:11;0.73;;;0.68;;
40288;SDS011;28991;52.028;5.526;2023-07-13T02:36:37;1.17;;;0.80;;
40288;SDS011;28991;52.028;5.526;2023-07-13T02:39:05;0.90;;;0.80;;
40288;SDS011;28991;52.028;5.526;2023-07-13T02:41:31;1.30;;;0.80;;
40288;SDS011;28991;52.028;5.526;2023-07-13T02:44:00;1.08;;;0.80;;
40288;SDS011;28991;52.028;5.526;2023-07-13T02:46:29;0.93;;;0.70;;
40288;SDS011;28991;52.028;5.526;2023-07-13T02:48:55;0.75;;;0.75;;
40288;SDS011;28991;52.028;5.526;2023-07-13T02:51:21;1.25;;;0.75;;
40288;SDS011;28991;52.028;5.526;2023-07-13T02:53:47;1.38;;;0.70;;
40288;SDS011;28991;52.028;5.526;2023-07-13T02:56:12;1.30;;;0.90;;
40288;SDS011;28991;52.028;5.526;2023-07-13T02:58:38;1.20;;;0.80;;
40288;SDS011;28991;52.028;5.526;2023-07-13T03:01:10;0.82;;;0.63;;
40288;SDS011;28991;52.028;5.526;2023-07-13T03:03:37;0.80;;;0.80;;
40288;SDS011;28991;52.028;5.526;2023-07-13T03:06:03;0.75;;;0.75;;
40288;SDS011;28991;52.028;5.526;2023-07-13T03:08:31;1.10;;;0.80;;
40288;SDS011;28991;52.028;5.526;2023-07-13T03:11:00;1.00;;;0.85;;
40288;SDS011;28991;52.028;5.526;2023-07-13T03:13:26;1.23;;;0.90;;
40288;SDS011;28991;52.028;5.526;2023-07-13T03:15:52;1.20;;;0.80;;
40288;SDS011;28991;52.028;5.526;2023-07-13T03:18:18;0.90;;;0.68;;
40288;SDS011;28991;52.028;5.526;2023-07-13T03:20:44;1.52;;;0.88;;
40288;SDS011;28991;52.028;5.526;2023-07-13T03:23:09;1.05;;;0.85;;
40288;SDS011;28991;52.028;5.526;2023-07-13T03:25:35;1.17;;;0.77;;
40288;SDS011;28991;52.028;5.526;2023-07-13T03:28:00;2.38;;;1.13;;
40288;SDS011;28991;52.028;5.526;2023-07-13T03:30:26;1.85;;;0.52;;
40288;SDS011;28991;52.028;5.526;2023-07-13T03:32:52;0.95;;;0.70;;
40288;SDS011;28991;52.028;5.526;2023-07-13T03:35:17;1.08;;;0.90;;
40288;SDS011;28991;52.028;5.526;2023-07-13T03:37:43;1.00;;;0.90;;
40288;SDS011;28991;52.028;5.526;2023-07-13T03:40:09;1.20;;;0.80;;
40288;SDS011;28991;52.028;5.526;2023-07-13T03:42:35;1.73;;;0.90;;
40288;SDS011;28991;52.028;5.526;2023-07-13T03:45:01;0.90;;;0.73;;
40288;SDS011;28991;52.028;5.526;2023-07-13T03:47:27;1.27;;;0.73;;
40288;SDS011;28991;52.028;5.526;2023-07-13T03:49:52;2.33;;;0.80;;
40288;SDS011;28991;52.028;5.526;2023-07-13T03:52:18;1.17;;;0.80;;
40288;SDS011;28991;52.028;5.526;2023-07-13T03:54:44;2.20;;;0.88;;
40288;SDS011;28991;52.028;5.526;2023-07-13T03:57:10;0.60;;;0.60;;
40288;SDS011;28991;52.028;5.526;2023-07-13T03:59:35;1.60;;;0.80;;
40288;SDS011;28991;52.028;5.526;2023-07-13T04:02:01;0.80;;;0.70;;
40288;SDS011;28991;52.028;5.526;2023-07-13T04:04:29;1.35;;;0.60;;
40288;SDS011;28991;52.028;5.526;2023-07-13T04:06:55;0.70;;;0.60;;
40288;SDS011;28991;52.028;5.526;2023-07-13T04:09:23;1.38;;;0.77;;
40288;SDS011;28991;52.028;5.526;2023-07-13T04:11:49;1.23;;;0.80;;
40288;SDS011;28991;52.028;5.526;2023-07-13T04:14:15;2.35;;;0.93;;
40288;SDS011;28991;52.028;5.526;2023-07-13T04:16:41;2.42;;;1.10;;
40288;SDS011;28991;52.028;5.526;2023-07-13T04:19:08;2.90;;;0.85;;
40288;SDS011;28991;52.028;5.526;2023-07-13T04:21:35;1.60;;;0.88;;
40288;SDS011;28991;52.028;5.526;2023-07-13T04:24:01;1.15;;;0.73;;
40288;SDS011;28991;52.028;5.526;2023-07-13T04:26:28;1.33;;;0.90;;
40288;SDS011;28991;52.028;5.526;2023-07-13T04:28:54;1.25;;;0.75;;
40288;SDS011;28991;52.028;5.526;2023-07-13T04:31:20;1.67;;;1.10;;
40288;SDS011;28991;52.028;5.526;2023-07-13T04:33:46;0.70;;;0.60;;
40288;SDS011;28991;52.028;5.526;2023-07-13T04:36:13;1.80;;;0.82;;
40288;SDS011;28991;52.028;5.526;2023-07-13T04:38:40;2.78;;;0.98;;
40288;SDS011;28991;52.028;5.526;2023-07-13T04:41:07;2.83;;;1.08;;
40288;SDS011;28991;52.028;5.526;2023-07-13T04:43:33;1.85;;;0.93;;
40288;SDS011;28991;52.028;5.526;2023-07-13T04:46:06;1.00;;;0.70;;
40288;SDS011;28991;52.028;5.526;2023-07-13T04:48:34;1.05;;;0.73;;
40288;SDS011;28991;52.028;5.526;2023-07-13T04:51:00;2.20;;;0.80;;
40288;SDS011;28991;52.028;5.526;2023-07-13T04:53:27;2.47;;;0.90;;
40288;SDS011;28991;52.028;5.526;2023-07-13T04:55:53;2.45;;;0.70;;
40288;SDS011;28991;52.028;5.526;2023-07-13T04:58:18;2.45;;;0.93;;
40288;SDS011;28991;52.028;5.526;2023-07-13T05:00:44;1.73;;;0.75;;
40288;SDS011;28991;52.028;5.526;2023-07-13T05:03:10;0.77;;;0.57;;
40288;SDS011;28991;52.028;5.526;2023-07-13T05:05:35;2.28;;;1.02;;
40288;SDS011;28991;52.028;5.526;2023-07-13T05:08:01;1.88;;;0.90;;
40288;SDS011;28991;52.028;5.526;2023-07-13T05:10:27;2.15;;;0.80;;
40288;SDS011;28991;52.028;5.526;2023-07-13T05:12:52;0.70;;;0.70;;
40288;SDS011;28991;52.028;5.526;2023-07-13T05:15:20;2.13;;;1.00;;
40288;SDS011;28991;52.028;5.526;2023-07-13T05:17:47;1.13;;;0.80;;
40288;SDS011;28991;52.028;5.526;2023-07-13T05:20:13;2.70;;;0.95;;
40288;SDS011;28991;52.028;5.526;2023-07-13T05:22:38;0.90;;;0.70;;
40288;SDS011;28991;52.028;5.526;2023-07-13T05:25:05;2.25;;;0.90;;
40288;SDS011;28991;52.028;5.526;2023-07-13T05:27:31;1.42;;;0.75;;
40288;SDS011;28991;52.028;5.526;2023-07-13T05:29:57;2.30;;;1.13;;
40288;SDS011;28991;52.028;5.526;2023-07-13T05:32:23;3.17;;;0.90;;
40288;SDS011;28991;52.028;5.526;2023-07-13T05:34:48;2.75;;;1.02;;
40288;SDS011;28991;52.028;5.526;2023-07-13T05:37:14;2.35;;;0.93;;
40288;SDS011;28991;52.028;5.526;2023-07-13T05:39:39;2.55;;;1.00;;
40288;SDS011;28991;52.028;5.526;2023-07-13T05:42:05;2.15;;;0.90;;
40288;SDS011;28991;52.028;5.526;2023-07-13T05:44:31;1.77;;;0.90;;
40288;SDS011;28991;52.028;5.526;2023-07-13T05:46:57;1.55;;;0.80;;
40288;SDS011;28991;52.028;5.526;2023-07-13T05:49:23;1.20;;;0.93;;
40288;SDS011;28991;52.028;5.526;2023-07-13T05:51:48;1.85;;;0.80;;
40288;SDS011;28991;52.028;5.526;2023-07-13T05:54:14;4.55;;;0.98;;
40288;SDS011;28991;52.028;5.526;2023-07-13T05:56:40;1.50;;;1.08;;
40288;SDS011;28991;52.028;5.526;2023-07-13T05:59:05;2.97;;;1.08;;
40288;SDS011;28991;52.028;5.526;2023-07-13T06:01:31;1.30;;;0.90;;
40288;SDS011;28991;52.028;5.526;2023-07-13T06:03:57;1.63;;;0.80;;
40288;SDS011;28991;52.028;5.526;2023-07-13T06:06:23;1.83;;;0.90;;
40288;SDS011;28991;52.028;5.526;2023-07-13T06:08:48;1.17;;;0.93;;
40288;SDS011;28991;52.028;5.526;2023-07-13T06:11:15;0.80;;;0.80;;
40288;SDS011;28991;52.028;5.526;2023-07-13T06:13:43;0.68;;;0.63;;
40288;SDS011;28991;52.028;5.526;2023-07-13T06:16:11;0.98;;;0.73;;
40288;SDS011;28991;52.028;5.526;2023-07-13T06:18:38;1.20;;;0.70;;
40288;SDS011;28991;52.028;5.526;2023-07-13T06:21:08;0.80;;;0.50;;
40288;SDS011;28991;52.028;5.526;2023-07-13T06:23:36;0.45;;;0.45;;
40288;SDS011;28991;52.028;5.526;2023-07-13T06:26:03;0.60;;;0.60;;
40288;SDS011;28991;52.028;5.526;2023-07-13T06:28:29;0.60;;;0.60;;
40288;SDS011;28991;52.028;5.526;2023-07-13T06:30:56;1.65;;;0.93;;
40288;SDS011;28991;52.028;5.526;2023-07-13T06:33:23;0.93;;;0.60;;
40288;SDS011;28991;52.028;5.526;2023-07-13T06:35:48;0.63;;;0.60;;
40288;SDS011;28991;52.028;5.526;2023-07-13T06:38:14;0.50;;;0.50;;
40288;SDS011;28991;52.028;5.526;2023-07-13T06:40:40;1.42;;;0.70;;
40288;SDS011;28991;52.028;5.526;2023-07-13T06:43:06;0.40;;;0.40;;
40288;SDS011;28991;52.028;5.526;2023-07-13T06:45:35;0.55;;;0.50;;
40288;SDS011;28991;52.028;5.526;2023-07-13T06:48:10;0.50;;;0.50;;
40288;SDS011;28991;52.028;5.526;2023-07-13T06:50:36;1.17;;;0.52;;
40288;SDS011;28991;52.028;5.526;2023-07-13T06:53:02;0.60;;;0.45;;
40288;SDS011;28991;52.028;5.526;2023-07-13T06:55:28;0.60;;;0.40;;
40288;SDS011;28991;52.028;5.526;2023-07-13T06:57:53;0.50;;;0.50;;
40288;SDS011;28991;52.028;5.526;2023-07-13T07:00:19;0.47;;;0.47;;
40288;SDS011;28991;52.028;5.526;2023-07-13T07:02:45;0.80;;;0.80;;
40288;SDS011;28991;52.028;5.526;2023-07-13T07:05:10;0.75;;;0.57;;
40288;SDS011;28991;52.028;5.526;2023-07-13T07:07:36;0.90;;;0.60;;
40288;SDS011;28991;52.028;5.526;2023-07-13T07:10:02;0.77;;;0.50;;
40288;SDS011;28991;52.028;5.526;2023-07-13T07:12:28;0.80;;;0.47;;
40288;SDS011;28991;52.028;5.526;2023-07-13T07:14:54;1.40;;;0.73;;
40288;SDS011;28991;52.028;5.526;2023-07-13T07:17:19;0.80;;;0.60;;
40288;SDS011;28991;52.028;5.526;2023-07-13T07:19:45;0.70;;;0.55;;
40288;SDS011;28991;52.028;5.526;2023-07-13T07:22:11;0.85;;;0.60;;
40288;SDS011;28991;52.028;5.526;2023-07-13T07:24:36;0.82;;;0.60;;
40288;SDS011;28991;52.028;5.526;2023-07-13T07:27:02;1.73;;;0.80;;
40288;SDS011;28991;52.028;5.526;2023-07-13T07:29:28;0.60;;;0.50;;
40288;SDS011;28991;52.028;5.526;2023-07-13T07:31:54;0.68;;;0.60;;
40288;SDS011;28991;52.028;5.526;2023-07-13T07:34:19;1.05;;;0.95;;
40288;SDS011;28991;52.028;5.526;2023-07-13T07:36:45;1.25;;;0.80;;
40288;SDS011;28991;52.028;5.526;2023-07-13T07:39:11;0.80;;;0.70;;
40288;SDS011;28991;52.028;5.526;2023-07-13T07:41:37;1.15;;;0.70;;
40288;SDS011;28991;52.028;5.526;2023-07-13T07:44:02;1.10;;;0.63;;
40288;SDS011;28991;52.028;5.526;2023-07-13T07:46:29;1.10;;;0.90;;
40288;SDS011;28991;52.028;5.526;2023-07-13T07:48:55;0.88;;;0.60;;
40288;SDS011;28991;52.028;5.526;2023-07-13T07:51:21;0.60;;;0.60;;
40288;SDS011;28991;52.028;5.526;2023-07-13T07:53:47;1.10;;;0.60;;
40288;SDS011;28991;52.028;5.526;2023-07-13T07:56:13;1.27;;;0.70;;
40288;SDS011;28991;52.028;5.526;2023-07-13T07:58:41;2.17;;;0.80;;
40288;SDS011;28991;52.028;5.526;2023-07-13T08:01:07;1.08;;;0.60;;
40288;SDS011;28991;52.028;5.526;2023-07-13T08:03:33;0.90;;;0.90;;
40288;SDS011;28991;52.028;5.526;2023-07-13T08:05:59;1.45;;;0.57;;
40288;SDS011;28991;52.028;5.526;2023-07-13T08:08:25;1.52;;;0.77;;
40288;SDS011;28991;52.028;5.526;2023-07-13T08:10:51;0.90;;;0.70;;
40288;SDS011;28991;52.028;5.526;2023-07-13T08:13:17;1.20;;;0.60;;
40288;SDS011;28991;52.028;5.526;2023-07-13T08:15:43;0.50;;;0.50;;
40288;SDS011;28991;52.028;5.526;2023-07-13T08:18:09;0.50;;;0.50;;
40288;SDS011;28991;52.028;5.526;2023-07-13T08:20:38;1.17;;;0.75;;
40288;SDS011;28991;52.028;5.526;2023-07-13T08:23:04;1.17;;;0.80;;
40288;SDS011;28991;52.028;5.526;2023-07-13T08:25:30;1.00;;;0.90;;
40288;SDS011;28991;52.028;5.526;2023-07-13T08:27:55;1.58;;;0.77;;
40288;SDS011;28991;52.028;5.526;2023-07-13T08:30:21;0.80;;;0.73;;
40288;SDS011;28991;52.028;5.526;2023-07-13T08:32:47;1.20;;;1.02;;
40288;SDS011;28991;52.028;5.526;2023-07-13T08:35:12;1.35;;;0.80;;
40288;SDS011;28991;52.028;5.526;2023-07-13T08:37:39;2.00;;;0.80;;
40288;SDS011;28991;52.028;5.526;2023-07-13T08:40:04;1.45;;;0.75;;
40288;SDS011;28991;52.028;5.526;2023-07-13T08:42:39;1.30;;;0.90;;
40288;SDS011;28991;52.028;5.526;2023-07-13T08:48:18;2.20;;;0.88;;
40288;SDS011;28991;52.028;5.526;2023-07-13T08:53:40;1.63;;;0.70;;
40288;SDS011;28991;52.028;5.526;2023-07-13T08:56:15;1.75;;;0.80;;
40288;SDS011;28991;52.028;5.526;2023-07-13T08:58:44;1.50;;;0.70;;
40288;SDS011;28991;52.028;5.526;2023-07-13T09:01:16;1.65;;;0.90;;
40288;SDS011;28991;52.028;5.526;2023-07-13T09:15:39;2.42;;;1.20;;
40288;SDS011;28991;52.028;5.526;2023-07-13T09:18:11;1.00;;;0.63;;
40288;SDS011;28991;52.028;5.526;2023-07-13T09:21:03;4.00;;;1.38;;
40288;SDS011;28991;52.028;5.526;2023-07-13T09:23:29;1.35;;;0.85;;
40288;SDS011;28991;52.028;5.526;2023-07-13T09:25:59;1.45;;;1.00;;
40288;SDS011;28991;52.028;5.526;2023-07-13T09:28:44;2.08;;;0.93;;
40288;SDS011;28991;52.028;5.526;2023-07-13T09:31:13;2.30;;;0.85;;
40288;SDS011;28991;52.028;5.526;2023-07-13T09:33:49;1.40;;;1.08;;
40288;SDS011;28991;52.028;5.526;2023-07-13T09:38:46;3.53;;;1.20;;
40288;SDS011;28991;52.028;5.526;2023-07-13T09:41:26;1.83;;;1.23;;
40288;SDS011;28991;52.028;5.526;2023-07-13T09:44:10;1.80;;;1.10;;
40288;SDS011;28991;52.028;5.526;2023-07-13T09:46:39;1.98;;;1.30;;
40288;SDS011;28991;52.028;5.526;2023-07-13T09:49:12;2.25;;;1.20;;
40288;SDS011;28991;52.028;5.526;2023-07-13T09:51:38;1.27;;;0.93;;
40288;SDS011;28991;52.028;5.526;2023-07-13T09:54:05;1.40;;;1.00;;
40288;SDS011;28991;52.028;5.526;2023-07-13T09:56:42;1.55;;;0.98;;
40288;SDS011;28991;52.028;5.526;2023-07-13T09:59:18;1.55;;;1.15;;
40288;SDS011;28991;52.028;5.526;2023-07-13T10:01:45;3.75;;;1.20;;
40288;SDS011;28991;52.028;5.526;2023-07-13T10:04:13;1.35;;;0.60;;
40288;SDS011;28991;52.028;5.526;2023-07-13T10:06:44;1.52;;;0.68;;
40288;SDS011;28991;52.028;5.526;2023-07-13T10:09:14;2.60;;;1.15;;
40288;SDS011;28991;52.028;5.526;2023-07-13T10:11:41;1.90;;;1.03;;
40288;SDS011;28991;52.028;5.526;2023-07-13T10:14:14;1.70;;;1.20;;
40288;SDS011;28991;52.028;5.526;2023-07-13T10:16:43;1.02;;;0.90;;
40288;SDS011;28991;52.028;5.526;2023-07-13T10:19:21;1.92;;;0.85;;
40288;SDS011;28991;52.028;5.526;2023-07-13T10:22:00;1.33;;;0.93;;
40288;SDS011;28991;52.028;5.526;2023-07-13T10:24:30;1.15;;;0.75;;
40288;SDS011;28991;52.028;5.526;2023-07-13T10:29:23;1.15;;;1.00;;
40288;SDS011;28991;52.028;5.526;2023-07-13T10:31:52;2.53;;;0.90;;
40288;SDS011;28991;52.028;5.526;2023-07-13T10:34:18;1.40;;;0.85;;
40288;SDS011;28991;52.028;5.526;2023-07-13T10:36:45;0.93;;;0.60;;
40288;SDS011;28991;52.028;5.526;2023-07-13T10:41:46;1.20;;;0.80;;
40288;SDS011;28991;52.028;5.526;2023-07-13T10:44:18;1.10;;;0.70;;
40288;SDS011;28991;52.028;5.526;2023-07-13T10:46:51;1.42;;;0.80;;
40288;SDS011;28991;52.028;5.526;2023-07-13T10:49:21;3.95;;;1.67;;
40288;SDS011;28991;52.028;5.526;2023-07-13T10:51:47;1.13;;;0.93;;
40288;SDS011;28991;52.028;5.526;2023-07-13T10:56:53;0.88;;;0.60;;
40288;SDS011;28991;52.028;5.526;2023-07-13T10:59:41;1.50;;;1.02;;
40288;SDS011;28991;52.028;5.526;2023-07-13T11:04:51;2.53;;;1.00;;
40288;SDS011;28991;52.028;5.526;2023-07-13T11:07:25;1.67;;;1.17;;
40288;SDS011;28991;52.028;5.526;2023-07-13T11:09:56;1.02;;;0.75;;
40288;SDS011;28991;52.028;5.526;2023-07-13T11:22:45;3.22;;;1.52;;
40288;SDS011;28991;52.028;5.526;2023-07-13T11:25:30;3.75;;;1.55;;
40288;SDS011;28991;52.028;5.526;2023-07-13T11:33:15;3.67;;;1.77;;
40288;SDS011;28991;52.028;5.526;2023-07-13T11:35:53;3.42;;;1.63;;
40288;SDS011;28991;52.028;5.526;2023-07-13T11:38:35;4.53;;;1.65;;
40288;SDS011;28991;52.028;5.526;2023-07-13T11:41:04;3.92;;;1.85;;
40288;SDS011;28991;52.028;5.526;2023-07-13T11:43:41;3.25;;;1.77;;
40288;SDS011;28991;52.028;5.526;2023-07-13T11:48:46;4.28;;;1.42;;
40288;SDS011;28991;52.028;5.526;2023-07-13T11:54:00;2.10;;;1.40;;
40288;SDS011;28991;52.028;5.526;2023-07-13T11:56:29;4.38;;;1.48;;
40288;SDS011;28991;52.028;5.526;2023-07-13T11:58:57;2.35;;;1.55;;
40288;SDS011;28991;52.028;5.526;2023-07-13T12:01:29;2.15;;;1.33;;
40288;SDS011;28991;52.028;5.526;2023-07-13T12:03:58;1.88;;;1.25;;
40288;SDS011;28991;52.028;5.526;2023-07-13T12:06:29;2.88;;;1.30;;
40288;SDS011;28991;52.028;5.526;2023-07-13T12:08:57;4.22;;;1.70;;
40288;SDS011;28991;52.028;5.526;2023-07-13T12:11:24;2.05;;;1.45;;
40288;SDS011;28991;52.028;5.526;2023-07-13T12:13:50;2.50;;;1.50;;
40288;SDS011;28991;52.028;5.526;2023-07-13T12:16:24;3.60;;;1.48;;
40288;SDS011;28991;52.028;5.526;2023-07-13T12:18:52;3.67;;;1.60;;
40288;SDS011;28991;52.028;5.526;2023-07-13T12:21:18;2.80;;;1.40;;
40288;SDS011;28991;52.028;5.526;2023-07-13T12:23:47;3.15;;;1.50;;
40288;SDS011;28991;52.028;5.526;2023-07-13T12:26:14;2.92;;;1.42;;
40288;SDS011;28991;52.028;5.526;2023-07-13T12:28:49;3.28;;;1.58;;
40288;SDS011;28991;52.028;5.526;2023-07-13T12:31:34;2.30;;;1.25;;
40288;SDS011;28991;52.028;5.526;2023-07-13T12:34:19;2.95;;;1.48;;
40288;SDS011;28991;52.028;5.526;2023-07-13T12:36:51;3.70;;;1.33;;
40288;SDS011;28991;52.028;5.526;2023-07-13T12:39:32;1.67;;;1.38;;
40288;SDS011;28991;52.028;5.526;2023-07-13T12:42:36;1.90;;;1.10;;
40288;SDS011;28991;52.028;5.526;2023-07-13T12:45:01;2.72;;;1.50;;
40288;SDS011;28991;52.028;5.526;2023-07-13T12:47:54;3.85;;;1.38;;
40288;SDS011;28991;52.028;5.526;2023-07-13T12:50:50;4.05;;;1.50;;
40288;SDS011;28991;52.028;5.526;2023-07-13T12:53:17;3.17;;;1.25;;
40288;SDS011;28991;52.028;5.526;2023-07-13T12:55:53;1.92;;;1.20;;
40288;SDS011;28991;52.028;5.526;2023-07-13T12:58:32;2.63;;;1.58;;
40288;SDS011;28991;52.028;5.526;2023-07-13T13:01:07;2.58;;;1.35;;
40288;SDS011;28991;52.028;5.526;2023-07-13T13:03:35;2.53;;;1.13;;
40288;SDS011;28991;52.028;5.526;2023-07-13T13:06:04;2.03;;;1.40;;
40288;SDS011;28991;52.028;5.526;2023-07-13T13:08:36;1.23;;;0.95;;
40288;SDS011;28991;52.028;5.526;2023-07-13T13:11:02;2.47;;;1.25;;
40288;SDS011;28991;52.028;5.526;2023-07-13T13:13:28;1.42;;;1.00;;
40288;SDS011;28991;52.028;5.526;2023-07-13T13:15:53;3.35;;;1.45;;
40288;SDS011;28991;52.028;5.526;2023-07-13T13:18:20;2.63;;;1.40;;
40288;SDS011;28991;52.028;5.526;2023-07-13T13:20:47;3.10;;;1.55;;
40288;SDS011;28991;52.028;5.526;2023-07-13T13:23:15;3.10;;;1.33;;
40288;SDS011;28991;52.028;5.526;2023-07-13T13:25:44;2.88;;;1.25;;
40288;SDS011;28991;52.028;5.526;2023-07-13T13:28:17;1.30;;;1.20;;
40288;SDS011;28991;52.028;5.526;2023-07-13T13:30:45;1.85;;;1.40;;
40288;SDS011;28991;52.028;5.526;2023-07-13T13:33:13;1.80;;;1.10;;
40288;SDS011;28991;52.028;5.526;2023-07-13T13:35:41;2.53;;;1.45;;
40288;SDS011;28991;52.028;5.526;2023-07-13T13:38:13;4.53;;;1.75;;
40288;SDS011;28991;52.028;5.526;2023-07-13T13:40:42;2.97;;;1.65;;
40288;SDS011;28991;52.028;5.526;2023-07-13T13:43:15;2.10;;;1.42;;
40288;SDS011;28991;52.028;5.526;2023-07-13T13:45:42;2.97;;;1.60;;
40288;SDS011;28991;52.028;5.526;2023-07-13T13:48:14;2.42;;;1.63;;
40288;SDS011;28991;52.028;5.526;2023-07-13T13:53:11;1.42;;;1.05;;
40288;SDS011;28991;52.028;5.526;2023-07-13T13:55:38;1.85;;;1.23;;
40288;SDS011;28991;52.028;5.526;2023-07-13T13:58:06;1.80;;;1.15;;
40288;SDS011;28991;52.028;5.526;2023-07-13T14:00:33;1.90;;;1.40;;
40288;SDS011;28991;52.028;5.526;2023-07-13T14:02:59;1.85;;;1.35;;
40288;SDS011;28991;52.028;5.526;2023-07-13T14:05:25;1.50;;;1.15;;
40288;SDS011;28991;52.028;5.526;2023-07-13T14:07:51;2.20;;;1.30;;
40288;SDS011;28991;52.028;5.526;2023-07-13T14:10:18;1.80;;;1.55;;
40288;SDS011;28991;52.028;5.526;2023-07-13T14:12:50;2.20;;;1.35;;
40288;SDS011;28991;52.028;5.526;2023-07-13T14:15:19;1.38;;;1.25;;
40288;SDS011;28991;52.028;5.526;2023-07-13T14:17:47;2.20;;;1.15;;
40288;SDS011;28991;52.028;5.526;2023-07-13T14:20:16;1.42;;;1.13;;
40288;SDS011;28991;52.028;5.526;2023-07-13T14:22:43;1.42;;;1.10;;
40288;SDS011;28991;52.028;5.526;2023-07-13T14:25:12;1.80;;;1.30;;
40288;SDS011;28991;52.028;5.526;2023-07-13T14:27:40;1.60;;;1.17;;
40288;SDS011;28991;52.028;5.526;2023-07-13T14:30:17;2.28;;;1.60;;
40288;SDS011;28991;52.028;5.526;2023-07-13T14:32:45;2.10;;;1.35;;
40288;SDS011;28991;52.028;5.526;2023-07-13T14:35:15;2.80;;;1.38;;
40288;SDS011;28991;52.028;5.526;2023-07-13T14:37:43;2.30;;;1.17;;
40288;SDS011;28991;52.028;5.526;2023-07-13T14:40:14;3.65;;;1.15;;
40288;SDS011;28991;52.028;5.526;2023-07-13T14:42:42;1.25;;;1.15;;
40288;SDS011;28991;52.028;5.526;2023-07-13T14:45:14;3.60;;;1.40;;
40288;SDS011;28991;52.028;5.526;2023-07-13T14:47:42;3.33;;;1.73;;
40288;SDS011;28991;52.028;5.526;2023-07-13T14:50:29;3.22;;;1.50;;
40288;SDS011;28991;52.028;5.526;2023-07-13T14:52:57;2.05;;;1.30;;
40288;SDS011;28991;52.028;5.526;2023-07-13T14:55:23;2.63;;;1.50;;
40288;SDS011;28991;52.028;5.526;2023-07-13T14:57:51;1.63;;;1.33;;
40288;SDS011;28991;52.028;5.526;2023-07-13T15:00:18;2.88;;;1.30;;
40288;SDS011;28991;52.028;5.526;2023-07-13T15:02:49;1.40;;;1.27;;
40288;SDS011;28991;52.028;5.526;2023-07-13T15:05:19;1.83;;;1.27;;
40288;SDS011;28991;52.028;5.526;2023-07-13T15:07:48;1.95;;;1.40;;
40288;SDS011;28991;52.028;5.526;2023-07-13T15:10:25;3.15;;;1.67;;
40288;SDS011;28991;52.028;5.526;2023-07-13T15:12:56;2.17;;;1.30;;
40288;SDS011;28991;52.028;5.526;2023-07-13T15:15:37;2.90;;;1.58;;
40288;SDS011;28991;52.028;5.526;2023-07-13T15:18:05;3.25;;;1.35;;
40288;SDS011;28991;52.028;5.526;2023-07-13T15:20:34;3.45;;;1.67;;
40288;SDS011;28991;52.028;5.526;2023-07-13T15:23:00;2.50;;;1.60;;
40288;SDS011;28991;52.028;5.526;2023-07-13T15:25:27;2.60;;;1.63;;
40288;SDS011;28991;52.028;5.526;2023-07-13T15:27:55;2.15;;;1.30;;
40288;SDS011;28991;52.028;5.526;2023-07-13T15:30:22;2.03;;;1.20;;
40288;SDS011;28991;52.028;5.526;2023-07-13T15:33:00;1.73;;;1.30;;
40288;SDS011;28991;52.028;5.526;2023-07-13T15:35:37;3.45;;;1.48;;
40288;SDS011;28991;52.028;5.526;2023-07-13T15:38:10;2.72;;;1.58;;
40288;SDS011;28991;52.028;5.526;2023-07-13T15:40:40;2.28;;;1.30;;
40288;SDS011;28991;52.028;5.526;2023-07-13T15:43:15;2.17;;;1.30;;
40288;SDS011;28991;52.028;5.526;2023-07-13T15:45:43;2.17;;;1.50;;
40288;SDS011;28991;52.028;5.526;2023-07-13T15:48:15;1.30;;;1.13;;
40288;SDS011;28991;52.028;5.526;2023-07-13T15:50:49;1.90;;;1.20;;
40288;SDS011;28991;52.028;5.526;2023-07-13T15:53:20;1.83;;;1.15;;
40288;SDS011;28991;52.028;5.526;2023-07-13T15:55:48;2.05;;;1.33;;